Time;durP1;ratioP1;P1;durP2;ratioP2;P2;SDS_P1;SDS_P2;PMS_P1;PMS_P2;Temp;Humidity;BMP_temperature;BMP_pressure;BME280_temperature;BME280_humidity;BME280_pressure;Samples;Min_cycle;Max_cycle;Signal;HPM_P1;HPM_P2
2021/08/07 00:00:58;;;;;;;1.10;1.00;;;;;;;11.16;100.00;92420.28;2099726;28;20024;-87
2021/08/07 00:01:59;;;;;;;3.08;1.30;;;;;;;11.12;100.00;92416.97;2090188;28;20108;-87
2021/08/07 00:03:00;;;;;;;2.20;1.35;;;;;;;11.19;100.00;92417.47;2081930;28;20025;-84
2021/08/07 00:04:01;;;;;;;2.55;1.10;;;;;;;11.22;100.00;92415.84;2081696;28;20033;-86
2021/08/07 00:05:02;;;;;;;1.35;1.20;;;;;;;11.20;100.00;92420.91;2090363;28;20103;-85
2021/08/07 00:06:03;;;;;;;4.50;1.58;;;;;;;11.14;100.00;92430.66;2086862;28;20092;-85
2021/08/07 00:07:04;;;;;;;6.55;1.30;;;;;;;11.17;100.00;92422.50;2098391;28;20922;-86
2021/08/07 00:08:05;;;;;;;3.47;1.10;;;;;;;11.15;100.00;92426.78;2085859;28;20029;-87
2021/08/07 00:09:06;;;;;;;5.10;1.13;;;;;;;11.22;100.00;92442.59;2082246;28;20049;-85
2021/08/07 00:10:08;;;;;;;3.40;1.33;;;;;;;11.16;100.00;92434.41;2098577;28;20020;-87
2021/08/07 00:11:09;;;;;;;4.07;1.33;;;;;;;11.12;100.00;92425.00;2106995;28;20023;-88
2021/08/07 00:12:10;;;;;;;3.92;1.27;;;;;;;11.19;100.00;92432.75;2105745;28;20024;-85
2021/08/07 00:13:14;;;;;;;1.38;1.27;;;;;;;11.15;100.00;92421.44;2098467;28;20025;-85
2021/08/07 00:14:15;;;;;;;3.63;1.33;;;;;;;11.14;100.00;92426.03;2106967;28;20056;-86
2021/08/07 00:15:15;;;;;;;3.75;1.20;;;;;;;11.16;100.00;92418.34;2106996;28;20030;-87
2021/08/07 00:16:16;;;;;;;3.08;1.40;;;;;;;11.09;100.00;92411.31;2098583;28;20111;-84
2021/08/07 00:17:17;;;;;;;6.70;1.58;;;;;;;11.11;100.00;92410.88;2098752;28;20062;-85
2021/08/07 00:18:18;;;;;;;1.65;1.08;;;;;;;11.11;100.00;92405.53;2106808;28;20024;-88
2021/08/07 00:19:19;;;;;;;3.67;1.20;;;;;;;11.10;100.00;92414.72;2104588;28;20066;-87
2021/08/07 00:20:20;;;;;;;1.60;1.02;;;;;;;11.09;100.00;92413.22;2081777;28;20033;-86
2021/08/07 00:21:21;;;;;;;3.15;1.52;;;;;;;11.12;100.00;92420.41;2090374;28;20029;-87
2021/08/07 00:22:22;;;;;;;3.47;1.25;;;;;;;11.11;100.00;92413.56;2106783;28;20082;-86
2021/08/07 00:23:23;;;;;;;6.13;1.30;;;;;;;11.10;100.00;92410.13;2115042;28;20023;-85
2021/08/07 00:24:24;;;;;;;3.20;1.50;;;;;;;11.14;100.00;92420.69;2106750;28;20024;-86
2021/08/07 00:25:25;;;;;;;3.40;1.20;;;;;;;11.14;100.00;92419.94;2098220;28;20057;-88
2021/08/07 00:26:26;;;;;;;7.60;1.85;;;;;;;11.19;100.00;92416.72;2090428;28;20052;-88
2021/08/07 00:27:27;;;;;;;2.88;1.13;;;;;;;11.16;100.00;92414.94;2090014;28;20021;-87
2021/08/07 00:28:28;;;;;;;2.45;1.20;;;;;;;11.22;100.00;92419.25;2098376;28;20021;-85
2021/08/07 00:29:34;;;;;;;1.95;1.30;;;;;;;11.19;100.00;92419.38;2098264;28;20550;-86
2021/08/07 00:30:35;;;;;;;3.72;1.33;;;;;;;11.14;100.00;92427.97;2099100;28;20070;-86
2021/08/07 00:31:36;;;;;;;2.50;1.33;;;;;;;11.16;100.00;92426.38;2098598;28;20013;-84
2021/08/07 00:32:38;;;;;;;4.90;1.40;;;;;;;11.15;100.00;92419.53;2098065;28;20033;-88
2021/08/07 00:33:39;;;;;;;1.90;1.30;;;;;;;11.18;100.00;92425.94;2093295;28;20044;-84
2021/08/07 00:34:40;;;;;;;11.10;1.45;;;;;;;11.24;100.00;92424.94;2090166;28;20021;-85
2021/08/07 00:35:41;;;;;;;4.85;1.50;;;;;;;11.18;100.00;92415.97;2089971;28;20025;-84
2021/08/07 00:36:42;;;;;;;2.67;1.30;;;;;;;11.13;100.00;92411.19;2090091;28;20021;-84
2021/08/07 00:37:43;;;;;;;4.40;1.20;;;;;;;11.13;100.00;92402.41;2098180;28;20139;-84
2021/08/07 00:38:44;;;;;;;2.42;1.20;;;;;;;11.20;100.00;92402.91;2081552;28;20053;-85
2021/08/07 00:39:45;;;;;;;1.67;1.13;;;;;;;11.24;100.00;92395.50;2081840;28;20029;-87
2021/08/07 00:40:46;;;;;;;5.00;1.45;;;;;;;11.30;100.00;92406.38;2084847;28;20100;-84
2021/08/07 00:41:47;;;;;;;3.15;1.13;;;;;;;11.26;100.00;92395.81;2098254;28;20054;-85
2021/08/07 00:42:48;;;;;;;2.33;1.40;;;;;;;11.23;100.00;92393.25;2098201;28;20031;-85
2021/08/07 00:43:49;;;;;;;1.48;1.30;;;;;;;11.18;100.00;92399.19;2098069;28;20035;-84
2021/08/07 00:44:50;;;;;;;2.85;1.13;;;;;;;11.21;100.00;92398.31;2089802;28;20032;-86
2021/08/07 00:45:51;;;;;;;1.55;1.10;;;;;;;11.21;100.00;92409.00;2087314;28;20029;-86
2021/08/07 00:46:52;;;;;;;1.85;1.30;;;;;;;11.24;100.00;92416.19;2091334;28;20366;-86
2021/08/07 00:47:53;;;;;;;2.20;1.23;;;;;;;11.22;100.00;92408.56;2091317;28;20021;-84
2021/08/07 00:48:54;;;;;;;3.35;1.40;;;;;;;11.23;100.00;92407.38;2081494;28;20538;-86
2021/08/07 00:49:55;;;;;;;2.83;1.00;;;;;;;11.22;100.00;92410.50;2073686;28;20080;-85
2021/08/07 00:50:57;;;;;;;2.80;1.48;;;;;;;11.20;100.00;92402.91;2073510;28;20113;-86
2021/08/07 00:51:58;;;;;;;1.55;1.20;;;;;;;11.20;100.00;92402.91;2090035;28;20029;-86
2021/08/07 00:52:59;;;;;;;1.75;1.20;;;;;;;11.24;100.00;92400.13;2113245;28;20024;-87
2021/08/07 00:54:00;;;;;;;5.50;1.02;;;;;;;11.23;100.00;92401.28;2098174;28;20161;-84
2021/08/07 00:55:03;;;;;;;3.35;1.30;;;;;;;11.24;100.00;92403.53;2098124;28;20039;-83
2021/08/07 00:56:06;;;;;;;3.47;1.30;;;;;;;11.22;100.00;92399.78;2086515;28;20029;-87
2021/08/07 00:57:07;;;;;;;3.30;1.27;;;;;;;11.25;100.00;92396.25;2081909;28;20452;-84
2021/08/07 00:58:08;;;;;;;2.80;1.10;;;;;;;11.25;100.00;92398.94;2081528;28;20021;-87
2021/08/07 00:59:09;;;;;;;3.17;1.48;;;;;;;11.22;100.00;92391.78;2099200;28;20244;-86
2021/08/07 01:00:10;;;;;;;3.45;1.13;;;;;;;11.21;100.00;92393.72;2114763;28;20069;-87
2021/08/07 01:01:14;;;;;;;5.38;1.30;;;;;;;11.20;100.00;92392.22;2098228;28;20024;-84
2021/08/07 01:02:18;;;;;;;1.52;1.20;;;;;;;11.16;100.00;92388.91;2098920;28;20556;-86
2021/08/07 01:03:39;;;;;;;3.35;1.50;;;;;;;11.19;100.00;92392.63;2098412;28;20036;-86
2021/08/07 01:04:48;;;;;;;2.95;1.15;;;;;;;11.16;100.00;92394.28;2095404;28;20028;-84
2021/08/07 01:05:59;;;;;;;5.75;1.83;;;;;;;11.15;100.00;92384.00;2085967;28;20025;-85
2021/08/07 01:07:22;;;;;;;3.58;1.30;;;;;;;11.15;100.00;92375.97;2091194;28;20124;-87
2021/08/07 01:08:24;;;;;;;4.00;1.48;;;;;;;11.17;100.00;92392.34;2095280;28;20031;-85
2021/08/07 01:09:46;;;;;;;3.10;1.40;;;;;;;11.19;100.00;92390.72;2089668;28;20032;-85
2021/08/07 01:11:10;;;;;;;6.60;1.20;;;;;;;11.19;100.00;92388.03;2095757;28;20035;-85
2021/08/07 01:12:23;;;;;;;1.30;1.20;;;;;;;11.20;100.00;92389.53;2092932;28;20050;-86
2021/08/07 01:13:31;;;;;;;2.90;1.00;;;;;;;11.18;100.00;92394.56;2099583;28;20024;-86
2021/08/07 01:14:38;;;;;;;2.22;1.35;;;;;;;11.18;100.00;92396.50;2091014;28;20021;-86
2021/08/07 01:15:45;;;;;;;3.45;1.25;;;;;;;11.20;100.00;92394.16;2082832;28;20021;-85
2021/08/07 01:16:47;;;;;;;3.53;1.50;;;;;;;11.29;100.00;92399.56;2083099;28;20520;-87
2021/08/07 01:17:48;;;;;;;3.40;1.52;;;;;;;11.26;100.00;92392.41;2090107;28;20462;-85
2021/08/07 01:18:51;;;;;;;3.70;1.20;;;;;;;11.25;100.00;92394.31;2101782;28;20024;-84
2021/08/07 01:19:55;;;;;;;1.17;1.05;;;;;;;11.31;100.00;92392.56;2098063;28;20032;-86
2021/08/07 01:20:57;;;;;;;3.42;1.27;;;;;;;11.34;100.00;92399.72;2098926;28;20024;-86
2021/08/07 01:22:01;;;;;;;2.35;1.10;;;;;;;11.37;100.00;92392.75;2106092;28;20099;-85
2021/08/07 01:23:11;;;;;;;1.88;1.30;;;;;;;11.39;100.00;92395.00;2098377;28;20031;-86
2021/08/07 01:24:18;;;;;;;8.07;1.30;;;;;;;11.37;100.00;92400.03;2098967;28;20033;-85
2021/08/07 01:25:19;;;;;;;3.72;1.30;;;;;;;11.35;100.00;92384.41;2100010;28;20032;-86
2021/08/07 01:26:33;;;;;;;4.25;1.20;;;;;;;11.35;100.00;92379.06;2112298;28;20486;-84
2021/08/07 01:27:37;;;;;;;6.85;1.45;;;;;;;11.33;100.00;92370.75;2099724;28;20047;-85
2021/08/07 01:28:40;;;;;;;4.80;1.48;;;;;;;11.37;100.00;92357.22;2098138;28;20075;-86
2021/08/07 01:29:41;;;;;;;2.90;1.15;;;;;;;11.23;100.00;92364.56;2106356;28;20350;-84
2021/08/07 01:30:43;;;;;;;1.85;1.30;;;;;;;11.30;100.00;92366.25;2111474;28;20031;-84
2021/08/07 01:31:46;;;;;;;2.63;1.10;;;;;;;11.37;100.00;92363.34;2106302;28;20659;-87
2021/08/07 01:32:49;;;;;;;2.03;1.13;;;;;;;11.37;100.00;92363.34;2098958;28;20354;-85
2021/08/07 01:33:50;;;;;;;1.38;1.05;;;;;;;11.36;100.00;92359.16;2091993;28;20032;-87
2021/08/07 01:34:53;;;;;;;1.45;1.27;;;;;;;11.34;100.00;92354.25;2097846;28;20056;-85
2021/08/07 01:35:55;;;;;;;2.67;1.40;;;;;;;11.35;100.00;92366.44;2098360;28;20020;-85
2021/08/07 01:36:56;;;;;;;1.92;0.90;;;;;;;11.30;100.00;92375.03;2097673;28;20024;-84
2021/08/07 01:37:59;;;;;;;3.55;1.55;;;;;;;11.34;100.00;92383.66;2101958;28;20059;-85
2021/08/07 01:39:03;;;;;;;10.07;1.63;;;;;;;11.42;100.00;92386.09;2098220;28;20059;-84
2021/08/07 01:40:07;;;;;;;1.98;1.10;;;;;;;11.38;100.00;92386.22;2098439;28;20016;-87
2021/08/07 01:41:20;;;;;;;1.63;1.20;;;;;;;11.30;100.00;92387.66;2090010;28;20017;-87
2021/08/07 01:42:23;;;;;;;3.83;1.30;;;;;;;11.30;100.00;92387.66;2099553;28;20024;-87
2021/08/07 01:43:24;;;;;;;2.08;1.27;;;;;;;11.27;100.00;92380.50;2097890;28;20024;-89
2021/08/07 01:44:28;;;;;;;4.03;1.23;;;;;;;11.25;100.00;92383.63;2092391;28;20032;-85
2021/08/07 01:45:29;;;;;;;3.55;1.23;;;;;;;11.22;100.00;92376.47;2115085;27;20107;-85
2021/08/07 01:46:56;;;;;;;2.75;1.20;;;;;;;11.17;100.00;92373.63;2102521;28;20024;-87
2021/08/07 01:48:04;;;;;;;3.72;1.20;;;;;;;11.10;100.00;92369.25;2108456;28;20034;-86
2021/08/07 01:49:13;;;;;;;2.63;1.45;;;;;;;11.10;100.00;92371.94;2099692;28;20024;-86
2021/08/07 01:50:23;;;;;;;4.38;1.30;;;;;;;11.16;100.00;92369.47;2099884;28;20032;-87
2021/08/07 01:51:38;;;;;;;3.50;1.00;;;;;;;11.12;100.00;92366.16;2108773;27;20028;-87
2021/08/07 01:52:44;;;;;;;2.90;1.33;;;;;;;11.09;100.00;92359.75;2100163;28;20504;-85
2021/08/07 01:53:49;;;;;;;1.55;1.20;;;;;;;11.08;100.00;92363.59;2107283;28;20024;-88
2021/08/07 01:55:03;;;;;;;2.17;1.20;;;;;;;11.06;100.00;92365.97;2105235;28;20024;-84
2021/08/07 01:56:11;;;;;;;6.40;1.63;;;;;;;11.04;100.00;92355.72;2093111;28;20049;-84
2021/08/07 01:57:19;;;;;;;1.50;1.05;;;;;;;11.00;100.00;92349.75;2100471;28;20029;-87
2021/08/07 01:58:25;;;;;;;3.05;1.20;;;;;;;10.99;100.00;92344.84;2106718;28;20020;-84
2021/08/07 01:59:27;;;;;;;2.15;1.20;;;;;;;11.07;100.00;92346.06;2092277;28;20037;-86
2021/08/07 02:00:28;;;;;;;3.40;1.20;;;;;;;11.04;100.00;92347.69;2092858;28;20079;-87
2021/08/07 02:01:32;;;;;;;2.60;1.30;;;;;;;11.04;100.00;92352.28;2090634;28;20123;-85
2021/08/07 02:02:33;;;;;;;4.97;1.45;;;;;;;11.08;100.00;92359.00;2097708;28;20385;-87
2021/08/07 02:03:38;;;;;;;1.92;1.30;;;;;;;11.03;100.00;92362.25;2097735;28;20025;-87
2021/08/07 02:06:49;;;;;;;;;;;;;;;10.90;100.00;92374.94;2149110;27;20113;-83
2021/08/07 02:07:51;;;;;;;5.38;1.15;;;;;;;10.90;100.00;92374.19;2129189;27;19911;-86
2021/08/07 02:08:54;;;;;;;5.45;1.27;;;;;;;10.98;100.00;92381.53;2113828;27;20115;-86
2021/08/07 02:09:56;;;;;;;3.78;1.80;;;;;;;10.89;100.00;92368.09;2121902;27;20068;-86
2021/08/07 02:10:59;;;;;;;3.33;1.10;;;;;;;10.85;100.00;92370.16;2130289;27;20435;-85
2021/08/07 02:12:00;;;;;;;2.90;1.30;;;;;;;10.92;100.00;92374.50;2130416;27;20035;-84
2021/08/07 02:13:01;;;;;;;3.17;1.13;;;;;;;10.91;100.00;92368.41;2121820;28;20027;-87
2021/08/07 02:14:04;;;;;;;4.20;1.38;;;;;;;10.92;100.00;92367.22;2105255;28;20024;-88
2021/08/07 02:16:40;;;;;;;2.40;1.20;;;;;;;10.94;100.00;92375.56;2126369;27;20487;-86
2021/08/07 02:17:43;;;;;;;3.05;1.40;;;;;;;10.89;100.00;92373.44;2113541;28;20547;-84
2021/08/07 02:18:45;;;;;;;5.07;1.50;;;;;;;10.96;100.00;92378.53;2113712;27;20490;-85
2021/08/07 02:19:47;;;;;;;3.28;1.23;;;;;;;10.96;100.00;92369.78;2113302;28;20030;-85
2021/08/07 02:20:49;;;;;;;2.83;1.30;;;;;;;10.93;100.00;92370.63;2105664;28;20024;-86
2021/08/07 02:22:53;;;;;;;3.03;1.27;;;;;;;10.94;100.00;92362.19;2113215;28;20016;-87
2021/08/07 02:24:58;;;;;;;4.32;1.42;;;;;;;10.99;100.00;92356.28;2113262;28;20785;-88
2021/08/07 02:27:03;;;;;;;1.88;1.00;;;;;;;10.95;100.00;92355.66;2110541;28;20118;-85
2021/08/07 02:29:08;;;;;;;2.65;1.23;;;;;;;10.93;100.00;92360.69;2121639;28;20027;-85
2021/08/07 02:31:13;;;;;;;3.20;1.20;;;;;;;10.90;100.00;92356.22;2113079;28;20028;-86
2021/08/07 02:33:18;;;;;;;1.35;1.02;;;;;;;10.87;100.00;92351.72;2121776;28;20032;-86
2021/08/07 02:34:52;;;;;;;4.97;1.00;;;;;;;10.88;100.00;92344.47;2113082;28;20118;-85
2021/08/07 02:35:55;;;;;;;3.67;1.20;;;;;;;10.89;100.00;92343.28;2108106;28;20027;-86
2021/08/07 02:36:57;;;;;;;2.17;1.30;;;;;;;10.86;100.00;92346.84;2114248;27;20634;-84
2021/08/07 02:37:58;;;;;;;2.47;1.15;;;;;;;10.85;100.00;92351.44;2109189;28;20372;-84
2021/08/07 02:39:01;;;;;;;1.35;1.10;;;;;;;10.77;100.00;92344.84;2104997;28;20527;-84
2021/08/07 02:40:05;;;;;;;4.25;1.30;;;;;;;10.78;100.00;92341.72;2105033;28;20139;-86
2021/08/07 02:41:07;;;;;;;6.07;1.27;;;;;;;10.75;100.00;92341.84;2109419;28;20028;-86
2021/08/07 02:42:08;;;;;;;2.58;1.40;;;;;;;10.73;100.00;92341.56;2105077;28;20115;-87
2021/08/07 02:43:10;;;;;;;2.15;1.10;;;;;;;10.79;100.00;92345.13;2104887;28;20031;-86
2021/08/07 02:44:11;;;;;;;1.85;1.30;;;;;;;10.78;100.00;92340.97;2097007;28;20024;-84
2021/08/07 02:45:13;;;;;;;1.55;1.00;;;;;;;10.82;100.00;92346.94;2096616;28;20088;-86
2021/08/07 02:46:14;;;;;;;2.47;1.17;;;;;;;10.83;100.00;92346.50;2110064;27;20488;-86
2021/08/07 02:47:18;;;;;;;3.10;1.23;;;;;;;10.90;100.00;92350.13;2121942;27;20463;-85
2021/08/07 02:48:28;;;;;;;2.80;1.20;;;;;;;10.89;100.00;92352.06;2107427;28;20704;-86
2021/08/07 02:49:35;;;;;;;1.65;1.20;;;;;;;10.92;100.00;92348.50;2100176;28;20040;-86
2021/08/07 02:50:44;;;;;;;1.33;1.10;;;;;;;10.90;100.00;92347.47;2097837;28;20482;-83
2021/08/07 02:51:49;;;;;;;1.75;1.20;;;;;;;10.95;100.00;92346.88;2112144;27;20652;-84
2021/08/07 02:52:50;;;;;;;1.15;0.98;;;;;;;10.88;100.00;92347.13;2121409;28;20110;-87
2021/08/07 02:53:52;;;;;;;2.08;1.10;;;;;;;10.91;100.00;92335.56;2104608;28;20078;-86
2021/08/07 02:54:53;;;;;;;1.90;1.50;;;;;;;10.86;100.00;92339.56;2102486;28;20027;-86
2021/08/07 02:55:54;;;;;;;2.55;1.38;;;;;;;10.90;100.00;92336.75;2106915;27;20408;-83
2021/08/07 02:56:58;;;;;;;2.08;1.20;;;;;;;10.86;100.00;92338.81;2112973;28;20047;-86
2021/08/07 02:58:00;;;;;;;1.25;1.15;;;;;;;10.86;100.00;92342.22;2097944;28;20491;-88
2021/08/07 02:59:04;;;;;;;5.38;1.35;;;;;;;10.87;100.00;92343.72;2097286;28;20032;-86
2021/08/07 03:00:06;;;;;;;2.63;1.25;;;;;;;10.85;100.00;92340.75;2113414;28;20082;-87
2021/08/07 03:01:07;;;;;;;6.00;1.38;;;;;;;10.87;100.00;92341.03;2104560;28;20024;-87
2021/08/07 03:02:10;;;;;;;1.80;0.93;;;;;;;10.87;100.00;92338.38;2108794;28;20420;-83
2021/08/07 03:03:11;;;;;;;3.85;1.20;;;;;;;10.89;100.00;92340.59;2104948;28;20031;-85
2021/08/07 03:04:12;;;;;;;3.13;1.40;;;;;;;10.95;100.00;92344.22;2105065;27;20020;-84
2021/08/07 03:05:13;;;;;;;2.08;1.05;;;;;;;10.92;100.00;92339.72;2121250;28;20053;-85
2021/08/07 03:06:14;;;;;;;2.63;1.25;;;;;;;10.87;100.00;92335.69;2103053;28;20041;-86
2021/08/07 03:07:18;;;;;;;1.52;1.10;;;;;;;10.93;100.00;92327.84;2096643;28;20115;-85
2021/08/07 03:08:18;;;;;;;1.75;1.33;;;;;;;10.93;100.00;92333.97;2110594;28;20484;-86
2021/08/07 03:09:19;;;;;;;1.25;1.02;;;;;;;10.97;100.00;92331.16;2113031;28;20031;-84
2021/08/07 03:10:21;;;;;;;1.25;0.95;;;;;;;10.95;100.00;92331.59;2112770;28;20416;-84
2021/08/07 03:11:22;;;;;;;1.65;1.10;;;;;;;11.04;100.00;92337.00;2112930;28;20461;-86
2021/08/07 03:12:23;;;;;;;3.92;1.30;;;;;;;11.00;100.00;92335.63;2110700;28;20027;-86
2021/08/07 03:13:23;;;;;;;2.60;1.08;;;;;;;10.97;100.00;92331.16;2112977;28;20050;-87
2021/08/07 03:14:24;;;;;;;1.85;1.10;;;;;;;10.95;100.00;92330.84;2112926;28;20019;-84
2021/08/07 03:15:25;;;;;;;1.77;1.40;;;;;;;10.93;100.00;92328.63;2104464;28;20017;-87
2021/08/07 03:16:27;;;;;;;3.17;1.25;;;;;;;10.89;100.00;92328.00;2098734;28;20029;-86
2021/08/07 03:17:28;;;;;;;3.90;1.40;;;;;;;10.88;100.00;92325.75;2111034;28;20027;-85
2021/08/07 03:18:29;;;;;;;2.08;1.40;;;;;;;10.85;100.00;92327.38;2107000;28;20358;-86
2021/08/07 03:19:31;;;;;;;1.20;1.10;;;;;;;10.85;100.00;92324.69;2115755;28;20077;-84
2021/08/07 03:20:32;;;;;;;2.75;1.20;;;;;;;10.88;100.00;92318.47;2107185;28;20440;-85
2021/08/07 03:21:33;;;;;;;5.43;1.38;;;;;;;10.89;100.00;92316.53;2111716;28;20024;-85
2021/08/07 03:22:34;;;;;;;3.33;1.55;;;;;;;10.89;100.00;92309.28;2113173;28;20016;-87
2021/08/07 03:23:35;;;;;;;1.70;1.10;;;;;;;10.91;100.00;92311.50;2092864;28;20143;-87
2021/08/07 03:24:36;;;;;;;2.35;1.40;;;;;;;10.90;100.00;92323.41;2098782;28;20029;-88
2021/08/07 03:25:37;;;;;;;3.22;1.17;;;;;;;10.88;100.00;92321.13;2090323;28;20020;-87
2021/08/07 03:26:38;;;;;;;1.25;1.00;;;;;;;10.95;100.00;92322.81;2098297;28;20022;-85
2021/08/07 03:27:43;;;;;;;3.70;1.48;;;;;;;10.94;100.00;92322.09;2103140;27;20102;-86
2021/08/07 03:28:46;;;;;;;1.17;1.08;;;;;;;11.00;100.00;92322.25;2106880;28;20024;-85
2021/08/07 03:29:47;;;;;;;3.03;1.20;;;;;;;10.93;100.00;92325.19;2090577;28;20061;-85
2021/08/07 03:30:48;;;;;;;5.55;1.40;;;;;;;10.93;100.00;92317.16;2090412;28;20103;-86
2021/08/07 03:31:49;;;;;;;2.17;1.33;;;;;;;10.94;100.00;92316.00;2098504;28;20021;-85
2021/08/07 03:32:50;;;;;;;4.15;1.20;;;;;;;10.95;100.00;92307.53;2107220;28;20024;-87
2021/08/07 03:33:55;;;;;;;1.92;1.30;;;;;;;10.90;100.00;92318.03;2098806;28;20032;-87
2021/08/07 03:34:56;;;;;;;1.20;1.00;;;;;;;10.96;100.00;92317.03;2091391;28;20029;-87
2021/08/07 03:35:56;;;;;;;2.35;1.40;;;;;;;10.91;100.00;92320.28;2090542;28;20363;-86
2021/08/07 03:36:57;;;;;;;1.60;1.20;;;;;;;10.96;100.00;92316.28;2090487;28;20029;-84
2021/08/07 03:38:01;;;;;;;2.72;1.00;;;;;;;10.95;100.00;92310.19;2093320;28;20024;-86
2021/08/07 03:39:04;;;;;;;2.85;1.35;;;;;;;10.96;100.00;92318.97;2091180;28;20079;-85
2021/08/07 03:40:05;;;;;;;3.03;1.20;;;;;;;10.94;100.00;92322.09;2099219;28;20393;-84
2021/08/07 03:41:06;;;;;;;2.00;1.23;;;;;;;10.91;100.00;92322.22;2107112;28;20046;-87
2021/08/07 03:42:07;;;;;;;3.58;1.33;;;;;;;10.95;100.00;92314.81;2115351;28;20020;-86
2021/08/07 03:43:08;;;;;;;1.52;1.05;;;;;;;11.01;100.00;92308.44;2115569;28;20023;-85
2021/08/07 03:44:09;;;;;;;3.53;1.38;;;;;;;11.01;100.00;92303.09;2106852;28;20047;-84
2021/08/07 03:45:11;;;;;;;1.88;1.30;;;;;;;10.98;100.00;92298.63;2107015;28;20897;-85
2021/08/07 03:46:12;;;;;;;1.10;1.00;;;;;;;11.00;100.00;92296.25;2107037;28;20028;-87
2021/08/07 03:47:15;;;;;;;3.25;1.15;;;;;;;11.04;100.00;92294.19;2098598;28;20025;-86
2021/08/07 03:48:16;;;;;;;3.20;1.23;;;;;;;10.98;100.00;92301.31;2090994;28;20059;-90
2021/08/07 03:49:17;;;;;;;2.25;1.02;;;;;;;10.92;100.00;92296.94;2107239;28;20020;-85
2021/08/07 03:50:21;;;;;;;3.97;1.45;;;;;;;10.93;100.00;92290.41;2106809;28;20116;-88
2021/08/07 03:51:22;;;;;;;2.80;1.55;;;;;;;10.98;100.00;92300.56;2098872;28;20508;-85
2021/08/07 03:52:30;;;;;;;2.28;1.25;;;;;;;10.98;100.00;92287.19;2106737;28;20054;-85
2021/08/07 03:53:31;;;;;;;1.67;1.00;;;;;;;11.01;100.00;92292.41;2099342;28;20028;-87
2021/08/07 03:54:31;;;;;;;2.00;1.20;;;;;;;11.00;100.00;92290.91;2098600;28;20455;-85
2021/08/07 03:55:32;;;;;;;1.50;1.40;;;;;;;11.01;100.00;92289.72;2098651;28;20028;-83
2021/08/07 03:56:33;;;;;;;4.03;1.67;;;;;;;10.97;100.00;92289.09;2110444;28;20102;-85
2021/08/07 03:57:48;;;;;;;1.92;1.60;;;;;;;10.99;100.00;92289.44;2115062;28;20036;-86
2021/08/07 03:58:49;;;;;;;6.65;1.30;;;;;;;10.98;100.00;92285.25;2108727;28;20028;-85
2021/08/07 03:59:50;;;;;;;2.95;1.30;;;;;;;10.93;100.00;92283.16;2098457;28;20063;-84
2021/08/07 04:00:51;;;;;;;5.97;1.15;;;;;;;10.95;100.00;92272.03;2107163;28;20020;-86
2021/08/07 04:01:54;;;;;;;2.28;1.15;;;;;;;10.96;100.00;92268.91;2100676;28;20031;-86
2021/08/07 04:02:55;;;;;;;3.80;1.38;;;;;;;10.91;100.00;92274.09;2090445;28;20491;-87
2021/08/07 04:03:56;;;;;;;1.80;1.40;;;;;;;10.92;100.00;92265.59;2090216;28;20033;-86
2021/08/07 04:04:57;;;;;;;1.60;1.42;;;;;;;10.96;100.00;92268.91;2105222;28;20465;-88
2021/08/07 04:05:58;;;;;;;3.30;1.50;;;;;;;11.02;100.00;92269.09;2095352;28;20025;-85
2021/08/07 04:06:59;;;;;;;1.95;1.20;;;;;;;11.03;100.00;92275.94;2098304;28;20036;-86
2021/08/07 04:08:04;;;;;;;4.28;1.30;;;;;;;11.09;100.00;92287.53;2093622;28;20024;-83
2021/08/07 04:09:05;;;;;;;1.30;1.00;;;;;;;11.03;100.00;92284.69;2107173;28;20531;-85
2021/08/07 04:10:10;;;;;;;1.27;1.17;;;;;;;10.99;100.00;92281.41;2106782;28;20016;-87
2021/08/07 04:11:11;;;;;;;2.20;1.20;;;;;;;10.97;100.00;92277.66;2107286;28;20032;-85
2021/08/07 04:12:11;;;;;;;1.40;1.10;;;;;;;10.94;100.00;92284.66;2106681;28;20044;-85
2021/08/07 04:13:12;;;;;;;2.83;1.48;;;;;;;10.96;100.00;92289.56;2098312;28;20025;-86
2021/08/07 04:14:13;;;;;;;5.60;1.13;;;;;;;11.02;100.00;92285.88;2106763;28;20492;-87
2021/08/07 04:15:14;;;;;;;3.15;1.17;;;;;;;11.04;100.00;92291.53;2106716;28;20020;-86
2021/08/07 04:16:15;;;;;;;7.22;1.35;;;;;;;11.02;100.00;92285.88;2090145;28;20029;-86
2021/08/07 04:17:16;;;;;;;1.92;1.38;;;;;;;10.94;100.00;92292.66;2098346;28;20103;-87
2021/08/07 04:18:17;;;;;;;1.45;1.20;;;;;;;10.98;100.00;92289.88;2098190;28;20520;-85
2021/08/07 04:19:20;;;;;;;2.20;1.40;;;;;;;10.97;100.00;92288.38;2099358;28;20031;-87
2021/08/07 04:20:21;;;;;;;5.78;1.40;;;;;;;11.01;100.00;92279.03;2114745;28;20165;-86
2021/08/07 04:21:24;;;;;;;1.48;1.20;;;;;;;10.97;100.00;92273.06;2105551;28;20069;-85
2021/08/07 04:22:25;;;;;;;1.10;1.00;;;;;;;10.88;100.00;92273.00;2105776;28;20468;-88
2021/08/07 04:23:26;;;;;;;4.32;1.50;;;;;;;10.90;100.00;92275.28;2112302;28;20028;-87
2021/08/07 04:24:30;;;;;;;3.03;1.27;;;;;;;10.93;100.00;92272.47;2114854;28;20103;-87
2021/08/07 04:25:32;;;;;;;2.50;1.20;;;;;;;11.02;100.00;92279.78;2099024;28;20119;-88
2021/08/07 04:26:33;;;;;;;9.52;2.47;;;;;;;11.00;100.00;92279.47;2106267;28;20049;-84
2021/08/07 04:27:34;;;;;;;2.47;1.17;;;;;;;10.95;100.00;92278.13;2113480;28;20110;-85
2021/08/07 04:28:42;;;;;;;1.20;1.13;;;;;;;10.95;100.00;92280.03;2106188;28;20043;-87
2021/08/07 04:29:43;;;;;;;1.95;1.40;;;;;;;10.97;100.00;92278.41;2101967;28;20017;-85
2021/08/07 04:30:44;;;;;;;2.20;1.50;;;;;;;10.95;100.00;92275.44;2095825;28;20875;-85
2021/08/07 04:31:45;;;;;;;1.33;1.20;;;;;;;10.94;100.00;92276.63;2100745;28;20123;-85
2021/08/07 04:32:46;;;;;;;3.20;1.10;;;;;;;10.98;100.00;92277.25;2107147;28;20034;-87
2021/08/07 04:33:47;;;;;;;1.58;1.20;;;;;;;11.01;100.00;92281.69;2105045;28;20024;-84
2021/08/07 04:34:48;;;;;;;3.83;1.40;;;;;;;10.97;100.00;92286.44;2106571;28;20054;-83
2021/08/07 04:35:51;;;;;;;2.85;1.55;;;;;;;10.96;100.00;92292.97;2105843;27;20438;-86
2021/08/07 04:36:52;;;;;;;1.63;1.20;;;;;;;10.95;100.00;92296.09;2106343;28;20069;-85
2021/08/07 04:37:56;;;;;;;6.22;1.60;;;;;;;10.91;100.00;92284.78;2106237;28;20080;-86
2021/08/07 04:38:57;;;;;;;3.30;1.20;;;;;;;10.92;100.00;92294.28;2098619;28;20025;-85
2021/08/07 04:39:58;;;;;;;2.55;1.30;;;;;;;10.92;100.00;92289.69;2106393;28;20512;-85
2021/08/07 04:41:00;;;;;;;2.92;1.10;;;;;;;10.91;100.00;92279.44;2112990;27;20035;-84
2021/08/07 04:42:02;;;;;;;3.25;1.20;;;;;;;10.91;100.00;92280.16;2112357;28;20020;-84
2021/08/07 04:43:03;;;;;;;1.15;0.90;;;;;;;10.90;100.00;92280.63;2103180;28;20875;-87
2021/08/07 04:44:06;;;;;;;5.93;1.20;;;;;;;10.89;100.00;92271.09;2106651;28;20059;-85
2021/08/07 04:45:08;;;;;;;3.00;1.10;;;;;;;10.89;100.00;92263.84;2114710;28;20019;-85
2021/08/07 04:46:11;;;;;;;1.40;1.15;;;;;;;10.86;100.00;92266.63;2106536;28;20107;-85
2021/08/07 04:47:12;;;;;;;2.45;1.23;;;;;;;10.81;100.00;92266.00;2106380;28;20071;-85
2021/08/07 04:48:13;;;;;;;2.15;1.23;;;;;;;10.80;100.00;92272.56;2105575;28;20019;-83
2021/08/07 04:49:14;;;;;;;1.67;1.10;;;;;;;10.80;100.00;92275.22;2106422;28;20100;-85
2021/08/07 04:50:15;;;;;;;1.17;1.02;;;;;;;10.75;100.00;92273.09;2093978;28;20020;-83
2021/08/07 04:51:16;;;;;;;1.38;1.13;;;;;;;10.75;100.00;92280.38;2106432;28;20465;-84
2021/08/07 04:52:17;;;;;;;2.25;1.25;;;;;;;10.78;100.00;92272.22;2114576;27;20051;-84
2021/08/07 04:53:18;;;;;;;1.00;1.00;;;;;;;10.80;100.00;92267.19;2115776;27;20034;-87
2021/08/07 04:54:21;;;;;;;3.92;1.20;;;;;;;10.79;100.00;92270.28;2102373;28;20086;-84
2021/08/07 04:55:23;;;;;;;1.60;1.10;;;;;;;10.84;100.00;92261.69;2095238;28;20357;-85
2021/08/07 04:56:31;;;;;;;2.95;1.38;;;;;;;10.82;100.00;92258.75;2093547;28;20055;-88
2021/08/07 04:57:32;;;;;;;1.42;1.20;;;;;;;10.82;100.00;92264.09;2105231;28;20028;-83
2021/08/07 04:58:33;;;;;;;3.17;1.20;;;;;;;10.90;100.00;92261.91;2097889;28;20016;-86
2021/08/07 04:59:34;;;;;;;2.00;1.30;;;;;;;10.95;100.00;92261.31;2106297;28;20591;-84
2021/08/07 05:00:37;;;;;;;1.50;1.20;;;;;;;10.93;100.00;92259.09;2113318;28;20027;-89
2021/08/07 05:01:39;;;;;;;1.67;1.10;;;;;;;11.02;100.00;92264.50;2106531;28;20020;-85
2021/08/07 05:02:42;;;;;;;4.20;1.30;;;;;;;11.03;100.00;92270.59;2107161;27;20525;-84